Time;durP1;ratioP1;P1;durP2;ratioP2;P2;SDS_P1;SDS_P2;PMS_P1;PMS_P2;Temp;Humidity;BMP_temperature;BMP_pressure;BME280_temperature;BME280_humidity;BME280_pressure;Samples;Min_cycle;Max_cycle;Signal;HPM_P1;HPM_P2
2022/10/03 00:01:21;;;;;;;15.30;2.73;;;;;;;12.13;100.00;102082.09;4989145;28;20212;-70
2022/10/03 00:04:04;;;;;;;16.20;2.77;;;;;;;12.14;100.00;102082.13;4998366;28;20215;-70
2022/10/03 00:06:41;;;;;;;14.60;3.03;;;;;;;12.17;100.00;102084.78;4997894;28;20195;-70
2022/10/03 00:09:25;;;;;;;21.23;3.23;;;;;;;12.20;100.00;102087.47;5000175;28;20253;-70
2022/10/03 00:12:03;;;;;;;16.40;2.83;;;;;;;12.25;100.00;102095.31;4995704;28;20199;-71
2022/10/03 00:15:13;;;;;;;14.47;2.93;;;;;;;12.27;100.00;102099.69;4996254;28;20215;-71
2022/10/03 00:17:44;;;;;;;13.53;2.40;;;;;;;12.25;100.00;102093.63;4937287;28;20292;-71
2022/10/03 00:20:12;;;;;;;13.63;2.90;;;;;;;12.20;100.00;102095.16;4990382;28;20204;-71
2022/10/03 00:23:05;;;;;;;12.93;2.83;;;;;;;12.25;99.79;102105.56;4998875;28;20191;-71
2022/10/03 00:25:47;;;;;;;18.60;2.87;;;;;;;12.24;100.00;102103.84;4965444;28;20211;-70
2022/10/03 00:28:49;;;;;;;15.17;2.60;;;;;;;12.19;100.00;102110.53;4991298;28;20565;-70
2022/10/03 00:31:23;;;;;;;15.57;2.60;;;;;;;12.16;99.94;102106.16;4988069;28;20669;-71
2022/10/03 00:34:00;;;;;;;15.23;2.13;;;;;;;12.15;100.00;102106.09;4996968;28;20233;-71
2022/10/03 00:36:48;;;;;;;15.90;2.73;;;;;;;12.13;99.81;102112.91;4993162;28;20665;-70
2022/10/03 00:39:43;;;;;;;15.97;2.63;;;;;;;12.11;100.00;102105.13;4988016;28;20209;-71
2022/10/03 00:42:34;;;;;;;15.63;3.03;;;;;;;12.08;99.73;102119.56;4991798;28;20188;-70
2022/10/03 00:45:30;;;;;;;15.63;2.87;;;;;;;12.12;99.66;102124.00;4992299;28;20206;-71
2022/10/03 00:48:41;;;;;;;11.33;2.43;;;;;;;12.16;99.59;102113.84;4995467;28;20202;-71
2022/10/03 00:51:25;;;;;;;14.07;2.67;;;;;;;12.13;99.60;102111.19;4995514;28;20215;-71
2022/10/03 00:54:16;;;;;;;17.73;2.90;;;;;;;12.13;100.00;102123.16;4983332;28;20226;-71
2022/10/03 00:57:07;;;;;;;16.03;2.93;;;;;;;12.18;100.00;102119.94;4996197;28;20192;-70
2022/10/03 01:00:01;;;;;;;13.97;2.27;;;;;;;12.19;100.00;102111.41;4992044;28;20286;-71
2022/10/03 01:02:43;;;;;;;18.47;2.40;;;;;;;12.16;100.00;102119.00;4986364;28;20237;-70
2022/10/03 01:05:25;;;;;;;14.87;2.90;;;;;;;12.15;100.00;102122.41;4996774;28;20277;-70
2022/10/03 01:08:06;;;;;;;18.20;3.03;;;;;;;12.19;100.00;102123.34;4994609;28;20198;-71
2022/10/03 01:10:50;;;;;;;11.10;2.63;;;;;;;12.19;100.00;102121.69;4992239;28;20703;-71
2022/10/03 01:13:26;;;;;;;15.70;3.00;;;;;;;12.26;100.00;102122.75;4992398;28;20191;-71
2022/10/03 01:16:44;;;;;;;16.33;2.47;;;;;;;12.25;100.00;102123.56;4992657;28;20698;-71
2022/10/03 01:19:19;;;;;;;21.93;3.13;;;;;;;12.21;100.00;102129.44;4982000;28;20200;-71
2022/10/03 01:21:47;;;;;;;12.77;2.33;;;;;;;12.18;100.00;102131.88;4986973;28;20277;-71
2022/10/03 01:24:15;;;;;;;12.20;2.60;;;;;;;12.18;100.00;102135.34;4995986;28;20276;-70
2022/10/03 01:26:41;;;;;;;14.33;3.00;;;;;;;12.18;100.00;102135.34;4993577;28;20196;-70
2022/10/03 01:32:20;;;;;;;20.63;3.30;;;;;;;12.17;100.00;102137.84;4997652;28;20187;-71
2022/10/03 01:34:58;;;;;;;18.70;2.93;;;;;;;12.19;100.00;102139.66;4987505;28;20187;-70
2022/10/03 01:37:32;;;;;;;12.70;2.80;;;;;;;12.20;100.00;102149.09;4991770;28;20708;-71
2022/10/03 01:40:18;;;;;;;16.27;3.43;;;;;;;12.21;100.00;102143.13;4993489;28;20221;-71
2022/10/03 01:43:20;;;;;;;14.43;3.17;;;;;;;12.23;100.00;102143.19;5001140;28;20202;-71
2022/10/03 01:46:11;;;;;;;15.70;2.60;;;;;;;12.26;100.00;102145.88;4996113;28;20194;-71
2022/10/03 01:48:48;;;;;;;11.47;2.23;;;;;;;12.28;100.00;102150.22;4992457;28;20211;-70
2022/10/03 01:51:33;;;;;;;13.27;2.53;;;;;;;12.27;100.00;102145.03;4993047;28;20286;-70
2022/10/03 01:53:59;;;;;;;13.00;2.70;;;;;;;12.26;100.00;102149.28;4992836;28;20198;-71
2022/10/03 01:56:46;;;;;;;13.67;2.27;;;;;;;12.28;100.00;102149.34;4997877;28;20668;-71
2022/10/03 01:59:48;;;;;;;14.50;3.10;;;;;;;12.27;100.00;102147.59;4995767;28;20322;-71
2022/10/03 02:02:19;;;;;;;14.03;2.63;;;;;;;12.25;100.00;102155.25;4998810;28;20689;-71
2022/10/03 02:05:18;;;;;;;11.17;2.60;;;;;;;12.24;100.00;102161.22;4988438;28;20613;-70
2022/10/03 02:07:54;;;;;;;11.73;2.50;;;;;;;12.20;100.00;102161.94;4994911;28;20613;-70
2022/10/03 02:10:52;;;;;;;18.37;2.80;;;;;;;12.15;100.00;102165.16;5012769;28;20290;-71
2022/10/03 02:13:53;;;;;;;16.83;2.80;;;;;;;12.10;100.00;102170.16;4987137;28;20616;-71
2022/10/03 02:16:31;;;;;;;14.50;2.90;;;;;;;12.05;100.00;102169.13;4989068;28;20250;-70
2022/10/03 02:19:05;;;;;;;17.43;3.60;;;;;;;12.01;100.00;102174.09;4994377;28;20540;-70
2022/10/03 02:21:32;;;;;;;11.80;3.00;;;;;;;11.96;100.00;102181.63;4978986;28;20532;-71
2022/10/03 02:24:16;;;;;;;13.87;3.10;;;;;;;11.93;100.00;102184.09;4998263;28;20195;-70
2022/10/03 02:27:19;;;;;;;18.40;3.23;;;;;;;11.90;100.00;102183.13;5004464;28;20253;-70
2022/10/03 02:30:03;;;;;;;19.83;3.10;;;;;;;11.88;100.00;102183.06;4979031;28;20224;-71
2022/10/03 02:32:51;;;;;;;17.80;2.90;;;;;;;11.87;100.00;102188.13;4988017;28;20183;-70
2022/10/03 02:35:51;;;;;;;15.00;3.30;;;;;;;11.85;100.00;102193.19;4993272;28;20294;-71
2022/10/03 02:38:22;;;;;;;15.97;2.57;;;;;;;11.86;100.00;102188.94;4974989;28;20193;-70
2022/10/03 02:41:25;;;;;;;14.63;2.67;;;;;;;11.80;100.00;102187.03;5000243;28;20270;-70
2022/10/03 02:44:09;;;;;;;16.20;2.90;;;;;;;11.75;100.00;102188.56;4987011;28;20195;-70
2022/10/03 02:47:11;;;;;;;17.27;2.60;;;;;;;11.75;100.00;102197.97;5000372;28;20188;-70
2022/10/03 02:50:08;;;;;;;16.60;3.63;;;;;;;11.73;100.00;102205.59;4997165;28;20219;-70
2022/10/03 02:53:00;;;;;;;16.93;3.07;;;;;;;11.69;100.00;102197.72;4989800;28;20249;-70
2022/10/03 02:55:35;;;;;;;14.20;2.50;;;;;;;11.63;100.00;102208.66;4990190;28;20191;-70
2022/10/03 02:58:21;;;;;;;20.07;3.07;;;;;;;11.58;100.00;102206.69;4993125;28;20278;-71
2022/10/03 03:01:05;;;;;;;11.43;2.83;;;;;;;11.54;100.00;102223.69;4994782;28;20265;-70
2022/10/03 03:04:22;;;;;;;16.27;2.73;;;;;;;11.51;100.00;102226.13;4998712;28;20668;-71
2022/10/03 03:06:55;;;;;;;15.43;2.83;;;;;;;11.50;100.00;102223.47;4994446;28;20652;-70
2022/10/03 03:09:26;;;;;;;15.63;3.17;;;;;;;11.49;100.00;102224.31;4994205;28;20219;-70
2022/10/03 03:12:22;;;;;;;14.50;2.63;;;;;;;11.43;100.00;102229.22;4992525;28;20278;-70
2022/10/03 03:15:02;;;;;;;15.00;2.67;;;;;;;11.39;100.00;102224.78;4998193;28;20223;-71
2022/10/03 03:17:47;;;;;;;13.13;2.73;;;;;;;11.34;100.00;102226.31;4998419;28;20187;-71
2022/10/03 03:20:28;;;;;;;12.63;2.40;;;;;;;11.26;100.00;102235.38;4992489;28;20251;-71
2022/10/03 03:23:22;;;;;;;22.53;3.53;;;;;;;11.24;100.00;102226.78;4994515;28;20210;-70
2022/10/03 03:26:00;;;;;;;13.10;2.87;;;;;;;11.22;100.00;102241.19;4995116;28;20191;-71
2022/10/03 03:28:50;;;;;;;14.50;2.60;;;;;;;11.18;100.00;102235.09;4994612;28;20207;-71
2022/10/03 03:31:27;;;;;;;12.43;2.40;;;;;;;11.15;100.00;102232.38;4992104;28;20223;-70
2022/10/03 03:34:15;;;;;;;16.63;2.90;;;;;;;11.12;100.00;102229.72;4992594;28;20190;-70
2022/10/03 03:37:05;;;;;;;17.17;3.17;;;;;;;11.13;100.00;102238.28;4994323;28;20197;-70
2022/10/03 03:39:53;;;;;;;12.73;2.87;;;;;;;11.09;100.00;102238.97;4990405;28;20216;-70
2022/10/03 03:42:26;;;;;;;12.97;2.63;;;;;;;11.09;100.00;102246.66;5005110;28;20242;-70
2022/10/03 03:45:06;;;;;;;15.07;3.00;;;;;;;11.07;100.00;102244.03;4991203;28;20199;-71
2022/10/03 03:48:10;;;;;;;14.40;2.80;;;;;;;11.01;100.00;102251.47;4991898;28;20202;-71
2022/10/03 03:50:56;;;;;;;19.77;3.23;;;;;;;10.98;100.00;102251.38;4999128;28;20207;-70
2022/10/03 03:53:40;;;;;;;13.03;2.70;;;;;;;10.95;100.00;102251.25;4991040;28;20283;-70
2022/10/03 03:56:32;;;;;;;16.50;2.63;;;;;;;10.94;100.00;102248.59;4992841;28;20187;-71
2022/10/03 03:59:01;;;;;;;15.27;2.97;;;;;;;10.89;100.00;102250.13;4993096;28;20256;-70
2022/10/03 04:01:35;;;;;;;21.30;3.83;;;;;;;10.89;100.00;102251.00;4992238;28;20285;-70
2022/10/03 04:04:35;;;;;;;14.23;2.83;;;;;;;10.91;100.00;102244.25;5001436;28;20233;-70
2022/10/03 04:07:24;;;;;;;13.60;2.70;;;;;;;10.90;100.00;102247.63;4989861;28;20244;-71
2022/10/03 04:10:05;;;;;;;16.00;3.17;;;;;;;10.90;100.00;102245.06;4991500;28;20219;-70
2022/10/03 04:13:02;;;;;;;13.83;2.70;;;;;;;10.85;100.00;102248.25;4991111;28;20938;-71
2022/10/03 04:15:33;;;;;;;14.50;3.33;;;;;;;10.79;100.00;102255.69;4991455;28;20253;-71
2022/10/03 04:21:49;;;;;;;15.53;2.70;;;;;;;10.74;100.00;102249.50;4988784;28;20187;-71
2022/10/03 04:24:33;;;;;;;14.20;2.43;;;;;;;10.70;100.00;102261.28;4980657;28;20681;-71
2022/10/03 04:27:22;;;;;;;12.43;2.70;;;;;;;10.70;100.00;102257.88;5012230;28;20776;-71
2022/10/03 04:29:48;;;;;;;14.53;2.97;;;;;;;10.65;100.00;102265.34;4992096;28;20266;-70
2022/10/03 04:32:28;;;;;;;15.00;3.07;;;;;;;10.65;100.00;102256.81;4996527;28;20199;-71
2022/10/03 04:34:54;;;;;;;15.20;3.17;;;;;;;10.68;100.00;102264.59;4991434;28;20190;-70
2022/10/03 04:37:47;;;;;;;16.30;3.03;;;;;;;10.63;100.00;102266.97;4990861;28;20215;-71
2022/10/03 04:40:23;;;;;;;12.03;2.67;;;;;;;10.66;100.00;102258.53;4996718;28;20207;-70
2022/10/03 04:43:08;;;;;;;15.70;2.80;;;;;;;10.64;100.00;102262.75;5001419;28;20188;-70
2022/10/03 04:45:34;;;;;;;17.07;2.40;;;;;;;10.61;100.00;102267.72;4993554;28;20238;-71
2022/10/03 04:48:08;;;;;;;12.97;2.73;;;;;;;10.59;100.00;102261.66;4993022;28;20251;-70
2022/10/03 04:50:56;;;;;;;20.50;3.27;;;;;;;10.59;100.00;102267.66;4994533;28;20210;-71
2022/10/03 04:53:40;;;;;;;15.40;2.90;;;;;;;10.60;100.00;102273.66;4994842;28;20199;-70
2022/10/03 04:56:11;;;;;;;11.03;2.60;;;;;;;10.58;100.00;102271.03;4989490;28;20673;-70
2022/10/03 04:58:55;;;;;;;13.67;2.33;;;;;;;10.59;100.00;102275.34;4991677;28;20592;-70
2022/10/03 05:01:39;;;;;;;13.17;2.20;;;;;;;10.59;100.00;102282.13;4993215;28;20207;-70
2022/10/03 05:04:18;;;;;;;13.57;2.50;;;;;;;10.55;100.00;102288.81;4994347;28;20270;-70
2022/10/03 05:06:55;;;;;;;17.57;2.53;;;;;;;10.54;100.00;102291.31;4994600;28;20187;-71
2022/10/03 05:09:33;;;;;;;13.57;3.00;;;;;;;10.52;100.00;102298.06;4994930;28;20223;-71
2022/10/03 05:12:34;;;;;;;11.83;2.10;;;;;;;10.53;100.00;102298.16;4989258;28;20192;-70
2022/10/03 05:15:21;;;;;;;15.57;2.70;;;;;;;10.57;100.00;102291.47;4992622;28;20207;-70
2022/10/03 05:18:01;;;;;;;10.03;2.20;;;;;;;10.51;100.00;102293.75;5004051;28;20184;-71
2022/10/03 05:20:43;;;;;;;11.93;2.13;;;;;;;10.51;100.00;102297.19;4992444;28;20647;-70
2022/10/03 05:23:23;;;;;;;18.07;2.43;;;;;;;10.54;100.00;102299.00;4999800;28;20198;-70
2022/10/03 05:26:02;;;;;;;17.27;3.07;;;;;;;10.55;100.00;102293.94;4988893;28;20206;-70
2022/10/03 05:28:58;;;;;;;8.67;2.27;;;;;;;10.52;100.00;102300.63;4993044;28;20207;-70
2022/10/03 05:31:45;;;;;;;12.20;2.53;;;;;;;10.54;100.00;102304.13;4994110;28;20294;-71
2022/10/03 05:34:52;;;;;;;21.33;3.17;;;;;;;10.54;100.00;102314.38;4983608;28;20192;-71
2022/10/03 05:37:42;;;;;;;11.70;1.93;;;;;;;10.53;100.00;102307.50;4980214;28;20226;-70
2022/10/03 05:40:27;;;;;;;14.17;2.30;;;;;;;10.55;100.00;102316.16;4995350;28;20213;-70
2022/10/03 05:43:02;;;;;;;11.30;2.90;;;;;;;10.53;100.00;102318.63;4988761;28;20249;-70
2022/10/03 05:45:39;;;;;;;16.37;2.50;;;;;;;10.57;100.00;102315.41;4987327;28;20190;-70
2022/10/03 05:48:43;;;;;;;15.43;2.67;;;;;;;10.59;100.00;102328.25;4989627;28;20215;-70
2022/10/03 05:51:47;;;;;;;13.10;2.67;;;;;;;10.61;100.00;102324.97;4992182;28;20216;-71
2022/10/03 05:54:28;;;;;;;12.20;2.37;;;;;;;10.61;100.00;102327.53;4959509;28;20616;-71
2022/10/03 05:57:45;;;;;;;16.57;2.97;;;;;;;10.64;100.00;102324.22;4988270;28;20649;-71
2022/10/03 06:00:22;;;;;;;15.47;2.87;;;;;;;10.66;100.00;102323.47;4957601;28;20231;-70
2022/10/03 06:03:12;;;;;;;11.43;2.20;;;;;;;10.73;100.00;102329.75;4981119;28;20660;-70
2022/10/03 06:06:02;;;;;;;19.97;3.27;;;;;;;10.77;100.00;102340.16;4992749;28;20179;-70
2022/10/03 06:08:40;;;;;;;18.80;3.13;;;;;;;10.81;100.00;102336.94;4994119;28;20713;-71
2022/10/03 06:11:26;;;;;;;13.00;2.53;;;;;;;10.87;100.00;102341.44;4995918;28;20760;-71
2022/10/03 06:14:00;;;;;;;13.27;2.43;;;;;;;10.92;100.00;102335.69;4991456;28;20237;-71
2022/10/03 06:16:57;;;;;;;15.63;3.03;;;;;;;10.97;100.00;102341.88;4997191;28;20199;-70
2022/10/03 06:19:41;;;;;;;17.83;3.57;;;;;;;11.19;100.00;102343.63;4990230;28;20212;-70
2022/10/03 06:22:39;;;;;;;21.00;2.80;;;;;;;11.42;100.00;102346.31;4995332;28;20191;-70
2022/10/03 06:25:05;;;;;;;17.17;3.30;;;;;;;11.50;100.00;102349.19;4992106;28;20670;-70
2022/10/03 06:27:55;;;;;;;16.70;3.10;;;;;;;11.55;100.00;102351.13;4993005;28;20211;-70
2022/10/03 06:30:55;;;;;;;15.13;2.27;;;;;;;11.65;100.00;102353.25;4995315;28;20333;-71
2022/10/03 06:33:53;;;;;;;14.73;2.73;;;;;;;11.67;100.00;102346.53;4995988;28;20921;-70
2022/10/03 06:36:56;;;;;;;16.73;3.30;;;;;;;11.74;100.00;102348.50;4997043;28;20183;-70
2022/10/03 06:39:43;;;;;;;15.93;3.20;;;;;;;11.75;100.00;102347.66;4985593;28;20230;-70
2022/10/03 06:42:40;;;;;;;13.70;3.20;;;;;;;11.79;100.00;102353.78;5003945;28;20183;-71
2022/10/03 06:45:15;;;;;;;17.17;3.13;;;;;;;11.85;100.00;102356.59;5002433;28;20195;-71
2022/10/03 06:48:11;;;;;;;14.37;3.00;;;;;;;11.98;100.00;102351.97;4987001;28;20239;-71
2022/10/03 06:51:11;;;;;;;15.33;2.73;;;;;;;12.02;100.00;102346.16;4999471;28;20600;-70
2022/10/03 06:53:42;;;;;;;13.43;2.60;;;;;;;12.18;100.00;102352.75;4993122;28;20243;-71
2022/10/03 06:56:43;;;;;;;17.53;3.77;;;;;;;12.28;99.72;102353.13;4975043;28;20231;-70
2022/10/03 06:59:16;;;;;;;16.43;3.27;;;;;;;12.37;99.70;102355.16;5007301;28;20265;-71
2022/10/03 07:02:19;;;;;;;22.47;3.23;;;;;;;12.36;99.86;102355.97;4956349;28;20196;-71
2022/10/03 07:05:06;;;;;;;13.23;2.43;;;;;;;12.33;99.69;102361.88;4987279;28;20223;-70
2022/10/03 07:07:52;;;;;;;15.17;3.27;;;;;;;12.37;100.00;102365.44;4996704;28;20206;-71
2022/10/03 07:10:30;;;;;;;19.40;2.93;;;;;;;12.42;99.73;102363.91;4969078;28;20738;-70
2022/10/03 07:13:38;;;;;;;19.43;3.17;;;;;;;12.54;99.62;102365.22;5003971;28;20286;-70
2022/10/03 07:16:46;;;;;;;18.90;3.10;;;;;;;12.73;99.00;102374.47;4976003;28;20960;-69
2022/10/03 07:19:39;;;;;;;17.53;3.63;;;;;;;12.88;98.50;102370.72;4989386;28;20208;-70
2022/10/03 07:22:26;;;;;;;18.73;3.40;;;;;;;12.90;98.07;102373.38;4997049;28;20194;-70
2022/10/03 07:25:12;;;;;;;11.37;2.90;;;;;;;12.83;98.21;102372.28;4991593;28;20202;-71
2022/10/03 07:27:49;;;;;;;13.30;2.80;;;;;;;12.87;97.87;102373.25;5000123;28;20191;-70
2022/10/03 07:30:16;;;;;;;19.43;3.37;;;;;;;12.89;97.59;102372.47;4990795;28;20296;-70
2022/10/03 07:33:19;;;;;;;21.20;3.00;;;;;;;12.88;97.79;102382.69;4989404;28;20191;-70
2022/10/03 07:39:15;;;;;;;21.27;3.97;;;;;;;13.28;96.40;102387.53;4995802;28;20250;-70
2022/10/03 07:41:52;;;;;;;14.73;2.70;;;;;;;13.39;96.34;102381.91;4994381;28;20230;-71
2022/10/03 07:44:42;;;;;;;15.27;3.40;;;;;;;13.51;96.16;102382.31;4996244;28;20187;-71
2022/10/03 07:47:45;;;;;;;15.90;2.73;;;;;;;13.82;94.33;102379.00;4992407;28;20200;-71
2022/10/03 07:50:36;;;;;;;15.00;3.53;;;;;;;14.18;93.04;102375.81;4989350;28;20231;-71
2022/10/03 07:53:31;;;;;;;15.87;2.90;;;;;;;14.36;92.19;102378.97;5001989;28;20349;-70
2022/10/03 07:56:18;;;;;;;8.43;2.50;;;;;;;14.35;92.74;102373.75;4992708;28;20199;-71
2022/10/03 07:59:05;;;;;;;15.10;3.30;;;;;;;14.41;91.33;102379.13;4992908;28;20275;-70
2022/10/03 08:01:57;;;;;;;14.73;2.90;;;;;;;14.99;90.10;102379.84;4989515;28;20195;-71
2022/10/03 08:04:59;;;;;;;13.40;2.83;;;;;;;15.13;88.42;102379.38;4993077;28;20196;-71
2022/10/03 08:07:33;;;;;;;13.93;2.70;;;;;;;15.08;88.04;102377.50;4992559;28;20206;-71
2022/10/03 08:10:19;;;;;;;13.30;3.00;;;;;;;15.33;88.05;102378.16;4999069;28;20285;-71
2022/10/03 08:13:19;;;;;;;13.63;2.83;;;;;;;15.36;86.02;102387.72;4994492;28;20199;-71
2022/10/03 08:16:26;;;;;;;14.37;2.27;;;;;;;15.37;86.03;102387.78;4986978;28;20206;-70
2022/10/03 08:19:01;;;;;;;11.40;2.50;;;;;;;15.09;86.10;102389.56;4947170;28;20236;-70
2022/10/03 08:21:47;;;;;;;13.37;2.50;;;;;;;15.30;86.10;102379.81;4954863;28;20230;-71
2022/10/03 08:24:38;;;;;;;13.77;2.57;;;;;;;15.76;85.34;102386.16;4983565;28;20607;-71
2022/10/03 08:27:40;;;;;;;11.73;2.70;;;;;;;16.43;82.26;102384.22;5002036;28;20202;-71
2022/10/03 08:30:19;;;;;;;11.43;2.93;;;;;;;16.64;82.06;102384.66;4972855;28;20304;-71
2022/10/03 08:33:15;;;;;;;9.97;2.33;;;;;;;16.86;80.09;102381.59;4984079;28;20228;-71
2022/10/03 08:36:08;;;;;;;7.27;2.10;;;;;;;17.24;78.89;102380.59;4995880;28;20180;-70
2022/10/03 08:38:58;;;;;;;11.63;2.20;;;;;;;17.39;78.15;102379.94;4993473;28;20266;-71
2022/10/03 08:42:14;;;;;;;6.03;1.60;;;;;;;17.97;76.48;102370.50;4994445;28;20198;-71
2022/10/03 08:44:58;;;;;;;9.03;1.97;;;;;;;18.19;75.13;102366.50;4993676;28;20315;-71
2022/10/03 08:47:35;;;;;;;10.37;2.00;;;;;;;18.42;74.60;102370.28;4993186;28;20183;-73
2022/10/03 08:50:53;;;;;;;10.52;2.10;;;;;;;18.71;73.47;102374.94;4996837;28;20218;-71
2022/10/03 08:53:27;;;;;;;6.78;2.42;;;;;;;19.15;71.11;102372.75;4905164;29;20202;-71
2022/10/03 08:56:16;;;;;;;8.38;2.08;;;;;;;19.49;69.37;102374.84;4904359;29;20194;-72
2022/10/03 08:58:50;;;;;;;6.40;2.22;;;;;;;19.96;67.73;102376.00;4968915;28;20204;-69
2022/10/03 09:01:39;;;;;;;5.70;2.20;;;;;;;21.07;63.38;102372.13;4992192;28;20293;-69
2022/10/03 09:04:30;;;;;;;6.93;2.30;;;;;;;23.94;53.64;102368.19;4989158;28;20199;-69
2022/10/03 09:07:19;;;;;;;7.15;2.33;;;;;;;23.17;54.35;102354.94;4996240;28;20207;-69
2022/10/03 09:10:09;;;;;;;5.60;2.28;;;;;;;25.44;48.35;102345.09;4987764;28;20578;-68
2022/10/03 09:12:56;;;;;;;8.13;2.25;;;;;;;25.11;49.54;102347.41;4988624;28;20207;-68
2022/10/03 09:15:46;;;;;;;8.88;2.10;;;;;;;23.98;50.76;102366.44;4999326;28;20195;-71
2022/10/03 09:18:26;;;;;;;8.25;2.58;;;;;;;25.61;47.04;102357.94;4996167;28;20215;-71
2022/10/03 09:21:25;;;;;;;7.88;2.22;;;;;;;22.39;54.42;102369.31;4992638;28;20692;-71
2022/10/03 09:24:26;;;;;;;8.43;2.55;;;;;;;20.70;61.70;102372.91;5002089;28;20226;-71
2022/10/03 09:27:14;;;;;;;10.07;2.10;;;;;;;19.91;64.15;102388.13;4992165;28;20190;-71
2022/10/03 09:30:04;;;;;;;10.03;2.57;;;;;;;19.59;65.51;102384.44;4991153;28;20226;-71
2022/10/03 09:32:55;;;;;;;13.07;2.80;;;;;;;19.11;67.88;102386.59;4996451;28;20226;-71
2022/10/03 09:36:06;;;;;;;9.27;2.70;;;;;;;18.68;69.21;102382.69;4993943;28;20223;-70
2022/10/03 09:38:56;;;;;;;11.00;2.87;;;;;;;19.54;67.59;102380.94;4976467;28;20324;-71
2022/10/03 09:41:41;;;;;;;12.30;2.30;;;;;;;19.77;66.54;102392.38;4991601;28;20275;-71
2022/10/03 09:44:28;;;;;;;10.63;2.60;;;;;;;19.56;66.93;102387.00;4992243;28;20187;-71
2022/10/03 09:47:38;;;;;;;11.40;2.77;;;;;;;18.75;69.83;102386.22;4990743;28;20195;-71
2022/10/03 09:49:39;;;;;;;9.43;2.40;;;;;;;18.40;70.41;102382.34;4994811;28;20669;-71
2022/10/03 09:52:10;;;;;;;9.67;2.57;;;;;;;19.10;69.29;102387.44;4998504;28;20192;-70
2022/10/03 09:54:54;;;;;;;8.23;2.43;;;;;;;18.30;71.08;102383.94;5001256;28;20180;-71
2022/10/03 09:57:41;;;;;;;11.77;2.67;;;;;;;18.15;72.82;102386.31;4993591;28;20187;-70
2022/10/03 10:00:18;;;;;;;10.17;2.07;;;;;;;18.49;71.89;102391.13;4993673;28;20218;-71
2022/10/03 10:02:50;;;;;;;10.87;2.67;;;;;;;18.39;72.33;102391.88;4987836;28;20636;-71
2022/10/03 10:05:37;;;;;;;11.90;2.83;;;;;;;18.22;73.36;102385.56;4993050;28;20208;-71
2022/10/03 10:08:31;;;;;;;9.83;2.60;;;;;;;22.50;59.82;102363.19;4997873;28;20204;-71
2022/10/03 10:11:18;;;;;;;9.57;2.50;;;;;;;22.48;55.48;102365.84;4978255;28;20210;-72
2022/10/03 10:14:05;;;;;;;10.50;2.20;;;;;;;22.84;56.21;102367.38;4998956;28;20194;-73
2022/10/03 10:17:08;;;;;;;11.07;2.63;;;;;;;20.33;63.62;102386.66;4990086;28;20223;-73
2022/10/03 10:20:04;;;;;;;9.73;2.73;;;;;;;19.44;66.63;102382.59;5003430;28;20300;-72
2022/10/03 10:22:35;;;;;;;9.47;2.53;;;;;;;18.91;69.22;102378.63;5001252;28;20219;-73
2022/10/03 10:25:23;;;;;;;11.67;2.87;;;;;;;18.75;70.45;102376.69;4997456;28;20198;-72
2022/10/03 10:28:07;;;;;;;8.67;2.23;;;;;;;18.62;70.85;102386.94;4997692;28;20192;-72
2022/10/03 10:31:03;;;;;;;11.33;2.50;;;;;;;19.13;68.26;102379.69;4975481;28;20276;-71
2022/10/03 10:33:40;;;;;;;11.40;2.60;;;;;;;21.43;63.30;102353.03;5001033;28;20724;-71
2022/10/03 10:36:31;;;;;;;8.75;2.40;;;;;;;28.63;43.41;102325.88;5001200;28;20190;-74
2022/10/03 10:39:47;;;;;;;4.95;1.75;;;;;;;32.05;35.54;102319.66;4999252;28;20565;-71
2022/10/03 10:42:49;;;;;;;7.53;1.98;;;;;;;28.08;40.79;102338.09;4939994;29;20197;-71
2022/10/03 10:45:29;;;;;;;9.18;2.33;;;;;;;24.13;49.90;102345.28;4930476;29;20197;-73
2022/10/03 10:48:01;;;;;;;8.63;2.58;;;;;;;24.17;50.73;102344.38;4988272;28;20214;-73
2022/10/03 10:51:05;;;;;;;9.45;2.28;;;;;;;24.73;48.54;102340.09;4993271;28;20223;-73
2022/10/03 10:53:49;;;;;;;11.35;2.53;;;;;;;22.16;56.83;102352.03;4993483;28;20183;-73
2022/10/03 10:56:46;;;;;;;7.53;2.23;;;;;;;20.50;62.34;102355.50;4996037;28;20275;-73
2022/10/03 10:59:20;;;;;;;8.17;2.07;;;;;;;19.95;66.46;102363.88;4997606;28;20702;-72
2022/10/03 11:02:10;;;;;;;9.17;1.93;;;;;;;19.21;70.02;102376.28;4996343;28;20197;-72
2022/10/03 11:04:54;;;;;;;12.03;2.60;;;;;;;18.62;74.94;102379.16;5001306;28;20251;-72
2022/10/03 11:07:41;;;;;;;11.70;2.90;;;;;;;18.29;75.83;102373.53;5003100;28;20264;-71
2022/10/03 11:10:47;;;;;;;10.17;2.63;;;;;;;17.96;77.14;102367.91;4991573;28;20219;-71
2022/10/03 11:14:04;;;;;;;8.80;2.17;;;;;;;27.05;48.67;102326.81;5004080;28;20679;-71
2022/10/03 11:16:55;;;;;;;6.07;1.80;;;;;;;28.41;44.36;102319.53;4989464;28;20188;-72
2022/10/03 11:19:45;;;;;;;7.95;2.33;;;;;;;32.40;37.98;102315.34;4985266;28;20207;-69
2022/10/03 11:23:00;;;;;;;8.30;1.70;;;;;;;24.08;54.47;102349.72;4994686;28;20568;-72
2022/10/03 11:26:03;;;;;;;5.03;2.00;;;;;;;21.31;61.80;102353.91;4991927;28;20247;-71
2022/10/03 11:29:06;;;;;;;9.90;2.07;;;;;;;20.45;65.50;102347.66;4998106;28;20219;-71
2022/10/03 11:32:07;;;;;;;7.17;2.07;;;;;;;19.92;67.27;102349.13;4981903;28;20670;-71
2022/10/03 11:34:32;;;;;;;7.27;1.90;;;;;;;19.56;69.21;102354.09;4988302;28;20250;-71
2022/10/03 11:37:05;;;;;;;8.37;1.83;;;;;;;19.55;67.84;102352.38;4994060;28;20208;-71
2022/10/03 11:39:42;;;;;;;7.93;2.00;;;;;;;21.05;63.93;102337.38;4996051;28;20257;-71
2022/10/03 11:42:21;;;;;;;7.57;2.10;;;;;;;20.29;64.79;102355.41;4989044;28;20195;-71
2022/10/03 11:44:59;;;;;;;7.37;1.97;;;;;;;19.45;68.64;102353.16;4998727;28;20208;-71
2022/10/03 11:47:46;;;;;;;7.23;1.90;;;;;;;19.16;70.39;102356.34;5001487;28;20819;-70
2022/10/03 11:50:18;;;;;;;6.60;1.80;;;;;;;18.78;71.25;102361.16;4996143;28;20258;-71
2022/10/03 11:53:16;;;;;;;8.37;1.73;;;;;;;18.73;71.22;102365.44;4995373;28;20527;-71
2022/10/03 11:56:02;;;;;;;7.13;1.43;;;;;;;18.91;71.92;102362.16;4995918;28;20256;-71
2022/10/03 11:58:46;;;;;;;7.83;2.07;;;;;;;18.87;71.29;102370.75;4992067;28;20767;-71
2022/10/03 12:01:53;;;;;;;8.63;2.20;;;;;;;19.74;67.06;102355.94;5000267;28;20215;-71
2022/10/03 12:04:28;;;;;;;7.37;1.73;;;;;;;20.41;64.08;102365.88;4991528;28;20191;-71
2022/10/03 12:10:09;;;;;;;4.93;1.27;;;;;;;19.49;66.04;102375.69;4989038;28;20227;-72
2022/10/03 12:12:50;;;;;;;7.40;1.47;;;;;;;19.48;66.60;102368.75;4996772;28;20350;-71
2022/10/03 12:15:23;;;;;;;6.27;2.10;;;;;;;19.69;66.22;102366.31;4995799;28;20281;-71
2022/10/03 12:18:09;;;;;;;6.10;1.30;;;;;;;19.87;66.06;102366.44;4994872;28;20730;-71
2022/10/03 12:20:40;;;;;;;6.47;1.77;;;;;;;18.85;69.67;102368.19;4977086;28;20936;-72
2022/10/03 12:23:27;;;;;;;9.00;1.83;;;;;;;19.51;68.16;102370.50;4990680;28;20278;-72
2022/10/03 12:25:55;;;;;;;5.43;1.70;;;;;;;20.43;65.22;102364.13;4996690;28;20557;-71
2022/10/03 12:28:31;;;;;;;6.72;1.85;;;;;;;26.83;47.98;102329.97;4998438;28;20667;-71
2022/10/03 12:31:20;;;;;;;7.57;2.15;;;;;;;29.56;39.81;102322.78;4984632;28;20246;-72
2022/10/03 12:33:57;;;;;;;5.25;1.90;;;;;;;24.81;48.57;102343.50;4993488;28;20202;-72
2022/10/03 12:36:52;;;;;;;6.70;1.80;;;;;;;23.62;53.44;102362.38;4992183;28;20183;-70
2022/10/03 12:39:29;;;;;;;7.32;1.75;;;;;;;22.55;56.76;102358.84;4994128;28;20215;-70
2022/10/03 12:41:54;;;;;;;6.45;1.80;;;;;;;21.92;58.22;102352.09;4998942;28;20195;-70
2022/10/03 12:44:39;;;;;;;7.77;2.47;;;;;;;20.73;63.66;102365.06;4996578;28;20200;-70
2022/10/03 12:47:43;;;;;;;8.40;2.53;;;;;;;20.15;65.52;102363.16;4999388;28;20187;-70
2022/10/03 12:50:28;;;;;;;7.77;2.10;;;;;;;19.85;66.89;102368.16;4988843;28;20722;-70
2022/10/03 12:53:18;;;;;;;11.40;2.27;;;;;;;19.81;67.49;102368.97;4989575;28;20204;-71
2022/10/03 12:55:48;;;;;;;10.50;2.20;;;;;;;20.62;65.91;102371.13;4989417;28;20191;-71